Fulda, MN

11:11 PM CDT on July 30, 2014 (GMT -0500)
Slayton (KDVP) Elev 1624 ft | 43.99 °N, 95.78 °W | Change Station

Current weather conditions updated 17 minutes ago

Scattered Clouds
Scattered Clouds
63 °F
Feels Like 63 °F
N
0
Wind Variable Wind from North

Tomorrow is forecast to be nearly the same temperature as today.

Today
High -- | Low -- °F
--% Chance of Precip.
Yesterday
High -- | Low -- °F
Precip. -- in
6:08 AM 8:48 PM
Waxing Crescent, 15% visible
Pressure 30.12 in
Visibility 10.0 miles
Clouds Scattered Clouds 6000 ft
Dew Point 57 °F
Humidity 82%
Rainfall 0.00 in
Snow Depth Not available.
UV 0 out of 12
Pollen 6.10 out of 12
Air Quality Not available.
Flu Activity Not available.
METAR KDVP 310354Z AUTO 00000KT 10SM SCT060 17/14 A3012 RMK AO2 T01710141

More Conditions Fewer Conditions

Pressure 30.12 in
Visibility 10.0 miles
Clouds Scattered Clouds 6000 ft
Dew Point 57 °F
Humidity 82%
Rainfall 0.00 in
Snow Depth Not available.
UV 0 out of 12
Pollen 6.10 out of 12
Air Quality Not available.
Flu Activity Not available.
METAR KDVP 310354Z AUTO 00000KT 10SM SCT060 17/14 A3012 RMK AO2 T01710141

More Conditions Fewer Conditions

10-Day Weather Forecast

Almanac

Astronomy

Jul. 30, 2014 Rise Set
Actual Time 6:08 AM CDT 8:48 PM CDT
Civil Twilight 5:35 AM CDT 9:21 PM CDT
Nautical Twilight 4:54 AM CDT 10:02 PM CDT
Astronomical Twilight 4:06 AM CDT 10:49 PM CDT
Moon 9:50 AM CDT (7/30) 10:21 PM CDT (7/30)
Length of Visible Light 15h 45m
Length of Day
14h 39m
Tomorrow will be 2m 16s shorter.
Waxing Crescent, 15% of the Moon is Illuminated
Jul 31
Waxing Crescent
Aug 3
First Quarter
Aug 10
Full
Aug 17
Last Quarter
Aug 25
New

Today's Extremes

State Highs State Lows

Community

WunderPhotos

Upload Photos

1,739,233 photos uploaded!

Nearby

Snow Depth

Station Depth Elevation
No new snow has been reported.

Earthquake Activity

City Distance Mag. Time & Date
No recent earthquake activity has been reported nearby.
Minimum magnitude displayed is 2.5.

Coastal Water Temperatures

Place Temperature
No Stations Reporting

Nearby Weather Stations

Station Location Temp. Dew Point Humidity Wind Precip. Elev Updated Type
300th st, Westbrook, MN 62.8 °F 58 °F 85% NNE  at  0.0 mph - / hr 1457 ft 11:00 PM CDT Normal
CityViewRanch, Westbrook, MN 60.5 °F 58 °F 90% WSW  at  0.0 mph 0.00 in / hr 1432 ft 11:10 PM CDT Normal
MesoWest HERONL , Heron Lake, MN 69 °F - - North  at  - 0.00 in / hr 1404 ft 9:20 PM CDT MADIS
Sorenson Seed, Storden, MN 64.4 °F 58 °F 81% NW  at  1.0 mph 0.00 in / hr 1404 ft 11:09 PM CDT Normal
Round Lake, Round Lake, MN 60.7 °F 57 °F 87% West  at  0.0 mph 0.00 in / hr 1535 ft 11:08 PM CDT Normal

Show More Stations Show Fewer Stations